createdAt,value
2022-09-23T00:01:58.785Z,98811.67
2022-09-23T00:04:29.439Z,98815.80
2022-09-23T00:06:58.102Z,98814.44
2022-09-23T00:09:26.829Z,98809.87
2022-09-23T00:11:57.437Z,98809.21
2022-09-23T00:14:25.296Z,98807.60
2022-09-23T00:16:54.031Z,98803.64
2022-09-23T00:19:23.144Z,98800.14
2022-09-23T00:21:51.775Z,98800.30
2022-09-23T00:24:20.484Z,98802.98
2022-09-23T00:26:49.151Z,98801.95
2022-09-23T00:29:18.376Z,98800.57
2022-09-23T00:31:47.355Z,98800.94
2022-09-23T00:34:16.180Z,98800.79
2022-09-23T00:36:44.911Z,98799.52
2022-09-23T00:39:13.794Z,98798.27
2022-09-23T00:41:42.599Z,98796.50
2022-09-23T00:44:43.130Z,98793.04
2022-09-23T00:47:14.847Z,98791.33
2022-09-23T00:49:46.985Z,98791.88
2022-09-23T00:52:20.644Z,98796.26
2022-09-23T00:54:52.296Z,98793.98
2022-09-23T00:57:22.760Z,98794.30
2022-09-23T00:59:51.653Z,98791.10
2022-09-23T01:02:21.182Z,98788.27
2022-09-23T01:04:51.299Z,98787.45
2022-09-23T01:07:21.290Z,98785.63
2022-09-23T01:09:50.669Z,98789.38
2022-09-23T01:12:43.695Z,98791.73
2022-09-23T01:15:18.464Z,98789.97
2022-09-23T01:17:55.643Z,98789.95
2022-09-23T01:21:03.995Z,98784.52
2022-09-23T01:24:15.527Z,98789.27
2022-09-23T01:27:02.357Z,98785.05
2022-09-23T01:30:11.903Z,98785.67
2022-09-23T01:32:50.266Z,98783.86
2022-09-23T01:35:29.773Z,98785.17
2022-09-23T01:38:09.618Z,98785.34
2022-09-23T01:40:48.640Z,98782.75
2022-09-23T01:43:25.765Z,98782.27
2022-09-23T01:45:59.235Z,98785.15
2022-09-23T01:48:35.218Z,98783.88
2022-09-23T01:51:08.511Z,98783.74
2022-09-23T01:53:45.740Z,98783.73
2022-09-23T01:56:18.191Z,98787.30
2022-09-23T01:58:56.668Z,98784.19
2022-09-23T02:01:30.525Z,98779.98
2022-09-23T02:04:08.329Z,98782.42
2022-09-23T02:06:43.139Z,98781.45
2022-09-23T02:09:15.588Z,98780.52
2022-09-23T02:11:48.616Z,98783.98
2022-09-23T02:14:23.623Z,98785.92
2022-09-23T02:16:56.608Z,98779.78
2022-09-23T02:19:30.904Z,98781.11
2022-09-23T02:22:05.275Z,98782.36
2022-09-23T02:24:39.780Z,98779.16
2022-09-23T02:27:17.986Z,98777.71
2022-09-23T02:32:46.494Z,98771.90
2022-09-23T02:35:22.030Z,98771.74
2022-09-23T02:38:00.788Z,98768.54
2022-09-23T02:40:37.899Z,98769.98
2022-09-23T02:43:11.590Z,98768.36
2022-09-23T02:45:40.326Z,98772.35
2022-09-23T02:48:14.236Z,98773.35
2022-09-23T02:50:43.412Z,98775.44
2022-09-23T02:53:12.093Z,98778.98
2022-09-23T02:55:42.617Z,98779.00
2022-09-23T02:58:12.732Z,98779.67
2022-09-23T03:00:54.520Z,98785.02
2022-09-23T03:03:34.704Z,98783.94
2022-09-23T03:06:17.668Z,98782.83
2022-09-23T03:08:52.809Z,98784.41
2022-09-23T03:11:21.869Z,98784.59
2022-09-23T03:14:06.579Z,98780.65
2022-09-23T03:16:43.035Z,98782.52
2022-09-23T03:19:23.371Z,98785.75
2022-09-23T03:22:01.201Z,98788.29
2022-09-23T03:24:34.036Z,98791.14
2022-09-23T03:27:07.754Z,98790.98
2022-09-23T03:29:41.842Z,98787.48
2022-09-23T03:32:11.484Z,98787.84
2022-09-23T03:34:44.080Z,98787.34
2022-09-23T03:37:18.294Z,98784.54
2022-09-23T03:39:52.769Z,98783.60
2022-09-23T03:42:24.489Z,98786.64
2022-09-23T03:44:56.598Z,98782.03
2022-09-23T03:47:26.827Z,98783.50
2022-09-23T03:49:56.864Z,98780.61
2022-09-23T03:52:26.722Z,98775.81
2022-09-23T03:54:55.512Z,98777.15
2022-09-23T03:57:25.979Z,98773.59
2022-09-23T03:59:54.903Z,98772.41
2022-09-23T04:02:23.843Z,98770.75
2022-09-23T04:04:52.640Z,98765.85
2022-09-23T04:07:21.419Z,98768.23
2022-09-23T04:09:50.300Z,98769.08
2022-09-23T04:12:19.351Z,98766.91
2022-09-23T04:14:48.132Z,98765.11
2022-09-23T04:17:17.631Z,98761.48
2022-09-23T04:19:46.400Z,98760.71
2022-09-23T04:22:15.094Z,98767.62
2022-09-23T04:24:46.068Z,98765.89
2022-09-23T04:27:14.840Z,98767.14
2022-09-23T04:29:43.637Z,98765.24
2022-09-23T04:32:22.168Z,98763.61
2022-09-23T04:34:51.157Z,98765.92
2022-09-23T04:37:20.232Z,98762.98
2022-09-23T04:39:49.033Z,98764.13
2022-09-23T04:42:18.028Z,98762.20
2022-09-23T04:44:46.818Z,98760.08
2022-09-23T04:47:15.973Z,98758.17
2022-09-23T04:49:44.681Z,98758.35
2022-09-23T04:52:13.484Z,98758.46
2022-09-23T04:54:42.247Z,98760.25
2022-09-23T04:57:11.041Z,98762.52
2022-09-23T04:59:40.897Z,98758.73
2022-09-23T05:02:10.710Z,98757.02
2022-09-23T05:04:41.140Z,98764.17
2022-09-23T05:07:10.313Z,98764.02
2022-09-23T05:09:39.368Z,98764.92
2022-09-23T05:12:11.249Z,98768.92
2022-09-23T05:14:40.067Z,98771.92
2022-09-23T05:17:08.761Z,98777.12
2022-09-23T05:19:38.114Z,98782.71
2022-09-23T05:22:07.603Z,98786.02
2022-09-23T05:24:36.297Z,98784.79
2022-09-23T05:27:07.325Z,98785.86
2022-09-23T05:29:36.023Z,98783.15
2022-09-23T05:32:04.920Z,98782.19
2022-09-23T05:34:33.715Z,98782.91
2022-09-23T05:37:02.644Z,98789.02
2022-09-23T05:39:35.317Z,98789.31
2022-09-23T05:42:04.701Z,98792.84
2022-09-23T05:44:33.636Z,98796.33
2022-09-23T05:47:05.450Z,98791.54
2022-09-23T05:49:58.065Z,98791.45
2022-09-23T05:52:25.819Z,98793.55
2022-09-23T05:54:54.786Z,98794.63
2022-09-23T05:57:23.926Z,98793.39
2022-09-23T05:59:52.604Z,98790.30
2022-09-23T06:02:21.210Z,98789.25
2022-09-23T06:04:50.482Z,98785.70
2022-09-23T06:07:19.209Z,98791.20
2022-09-23T06:09:47.855Z,98784.70
2022-09-23T06:12:16.566Z,98781.61
2022-09-23T06:14:45.211Z,98778.14
2022-09-23T06:17:13.877Z,98783.06
2022-09-23T06:19:44.166Z,98788.30
2022-09-23T06:22:16.286Z,98788.25
2022-09-23T06:24:45.209Z,98790.05
2022-09-23T06:27:14.190Z,98786.80
2022-09-23T06:29:43.403Z,98788.92
2022-09-23T06:32:12.107Z,98790.38
2022-09-23T06:34:51.946Z,98787.15
2022-09-23T06:37:21.271Z,98788.17
2022-09-23T06:39:50.277Z,98792.38
2022-09-23T06:42:22.194Z,98795.15
2022-09-23T06:44:50.816Z,98794.05
2022-09-23T06:47:22.838Z,98795.74
2022-09-23T06:49:51.454Z,98797.95
2022-09-23T06:52:20.621Z,98794.55
2022-09-23T06:54:49.482Z,98794.45
2022-09-23T06:57:20.682Z,98797.29
2022-09-23T06:59:49.690Z,98797.46
2022-09-23T07:02:18.861Z,98802.42
2022-09-23T07:04:47.680Z,98804.05
2022-09-23T07:07:18.052Z,98804.41
2022-09-23T07:09:50.506Z,98810.77
2022-09-23T07:12:19.196Z,98808.89
2022-09-23T07:14:48.163Z,98804.39
2022-09-23T07:17:16.824Z,98798.23
2022-09-23T07:19:45.593Z,98789.90
2022-09-23T07:22:14.226Z,98788.90
2022-09-23T07:24:43.360Z,98789.69
2022-09-23T07:27:13.659Z,98790.73
2022-09-23T07:29:48.498Z,98801.11
2022-09-23T07:32:18.026Z,98792.26
2022-09-23T07:34:47.045Z,98790.70
2022-09-23T07:37:16.707Z,98789.88
2022-09-23T07:39:45.655Z,98783.05
2022-09-23T07:42:15.186Z,98781.73
2022-09-23T07:44:44.736Z,98783.21
2022-09-23T07:47:13.747Z,98780.80
2022-09-23T07:49:42.642Z,98772.91
2022-09-23T07:52:11.381Z,98770.52
2022-09-23T07:54:40.069Z,98774.79
2022-09-23T07:57:10.332Z,98771.27
2022-09-23T07:59:40.085Z,98767.02
2022-09-23T08:02:11.023Z,98760.16
2022-09-23T08:04:40.209Z,98756.84
2022-09-23T08:07:09.503Z,98754.64
2022-09-23T08:09:41.093Z,98759.56
2022-09-23T08:12:15.877Z,98762.91
2022-09-23T08:14:45.843Z,98764.30
2022-09-23T08:17:14.632Z,98759.55
2022-09-23T08:19:43.682Z,98748.89
2022-09-23T08:22:12.358Z,98744.05
2022-09-23T08:24:40.996Z,98733.95
2022-09-23T08:27:12.151Z,98721.89
2022-09-23T08:29:40.845Z,98711.00
2022-09-23T08:32:09.501Z,98710.00
2022-09-23T08:34:39.513Z,98700.11
2022-09-23T08:37:11.036Z,98692.52
2022-09-23T08:39:39.686Z,98679.27
2022-09-23T08:42:17.236Z,98665.43
2022-09-23T08:44:50.560Z,98658.35
2022-09-23T08:47:23.903Z,98669.51
2022-09-23T08:49:58.998Z,98669.52
2022-09-23T08:52:35.663Z,98666.63
2022-09-23T08:55:05.983Z,98656.43
2022-09-23T08:58:02.249Z,98644.67
2022-09-23T09:00:42.098Z,98627.63
2022-09-23T09:03:24.193Z,98618.67
2022-09-23T09:05:54.628Z,98609.41
2022-09-23T09:08:29.163Z,98599.48
2022-09-23T09:10:58.908Z,98594.67
2022-09-23T09:13:33.129Z,98587.25
2022-09-23T09:16:23.885Z,98584.46
2022-09-23T09:19:16.564Z,98563.41
2022-09-23T09:21:47.323Z,98553.55
2022-09-23T09:24:24.796Z,98543.19
2022-09-23T09:26:54.336Z,98535.74
2022-09-23T09:29:34.731Z,98515.92
2022-09-23T09:32:16.148Z,98499.71
2022-09-23T09:34:54.100Z,98489.27
2022-09-23T09:37:32.369Z,98476.98
2022-09-23T09:40:01.945Z,98458.30
2022-09-23T09:42:39.342Z,98443.54
2022-09-23T09:45:19.731Z,98427.30
2022-09-23T09:47:56.116Z,98414.41
2022-09-23T09:50:43.457Z,98406.91
2022-09-23T09:53:24.123Z,98403.36
2022-09-23T09:56:05.774Z,98402.76
2022-09-23T09:58:43.175Z,98409.91
2022-09-23T10:01:23.045Z,98415.17
2022-09-23T10:03:56.931Z,98417.13
2022-09-23T10:06:31.815Z,98422.47
2022-09-23T10:09:14.854Z,98430.31
2022-09-23T10:12:01.966Z,98438.86
2022-09-23T10:14:31.015Z,98444.55
2022-09-23T10:17:05.071Z,98449.95
2022-09-23T10:19:36.594Z,98451.23
2022-09-23T10:22:09.869Z,98446.91
2022-09-23T10:24:47.289Z,98455.58
2022-09-23T10:27:25.225Z,98460.56
2022-09-23T10:29:57.192Z,98473.10
2022-09-23T10:32:29.434Z,98486.52
2022-09-23T10:35:02.005Z,98497.59
2022-09-23T10:37:37.510Z,98505.80
2022-09-23T10:40:37.466Z,98512.92
2022-09-23T10:43:43.404Z,98528.19
2022-09-23T10:46:37.783Z,98543.08
2022-09-23T10:49:43.741Z,98559.05
2022-09-23T10:52:26.743Z,98561.61
2022-09-23T10:55:07.253Z,98566.77
2022-09-23T10:57:42.436Z,98575.51
2022-09-23T11:00:22.426Z,98577.98
2022-09-23T11:03:26.183Z,98584.04
2022-09-23T11:06:12.219Z,98591.37
2022-09-23T11:09:09.538Z,98589.00
2022-09-23T11:11:50.079Z,98595.73
2022-09-23T11:14:38.158Z,98599.38
2022-09-23T11:17:29.401Z,98606.77
2022-09-23T11:20:28.701Z,98609.77
2022-09-23T11:23:21.505Z,98610.48
2022-09-23T11:25:58.532Z,98612.70
2022-09-23T11:29:13.408Z,98618.28
2022-09-23T11:31:54.070Z,98619.73
2022-09-23T11:34:52.607Z,98624.48
2022-09-23T11:37:29.556Z,98620.45
2022-09-23T11:40:03.348Z,98616.45
2022-09-23T11:42:35.875Z,98623.67
2022-09-23T11:45:14.517Z,98625.19
2022-09-23T11:47:50.360Z,98624.52
2022-09-23T11:50:26.412Z,98624.38
2022-09-23T11:53:01.458Z,98622.29
2022-09-23T11:55:33.533Z,98631.09
2022-09-23T11:58:19.729Z,98637.92
2022-09-23T12:01:00.852Z,98639.09
2022-09-23T12:03:44.670Z,98646.09
2022-09-23T12:06:18.833Z,98648.80
2022-09-23T12:08:49.693Z,98653.40
2022-09-23T12:11:28.270Z,98656.44
2022-09-23T12:14:18.017Z,98660.73
2022-09-23T12:17:08.751Z,98663.95
2022-09-23T12:19:57.646Z,98664.05
2022-09-23T12:22:46.083Z,98646.40
2022-09-23T12:25:37.634Z,98651.98
2022-09-23T12:28:12.232Z,98645.75
2022-09-23T12:30:41.856Z,98642.27
2022-09-23T12:33:16.190Z,98646.46
2022-09-23T12:35:46.927Z,98641.10
2022-09-23T12:38:21.388Z,98635.00
2022-09-23T12:40:51.605Z,98638.62
2022-09-23T12:43:29.074Z,98629.64
2022-09-23T12:46:19.757Z,98630.23
2022-09-23T12:48:59.935Z,98628.46
2022-09-23T12:51:30.231Z,98632.02
2022-09-23T12:54:14.689Z,98621.05
2022-09-23T12:57:00.453Z,98623.05
2022-09-23T12:59:31.807Z,98617.19
2022-09-23T13:02:25.608Z,98612.20
2022-09-23T13:05:21.194Z,98609.11
2022-09-23T13:07:50.869Z,98603.31
2022-09-23T13:10:32.073Z,98595.35
2022-09-23T13:13:02.076Z,98599.44
2022-09-23T13:15:33.533Z,98594.27
2022-09-23T13:18:37.063Z,98605.30
2022-09-23T13:21:18.578Z,98608.14
2022-09-23T13:24:18.899Z,98592.29
2022-09-23T13:26:49.845Z,98575.48
2022-09-23T13:29:24.686Z,98566.73
2022-09-23T13:31:55.949Z,98564.89
2022-09-23T13:34:30.296Z,98565.23
2022-09-23T13:37:10.942Z,98564.66
2022-09-23T13:39:39.653Z,98556.89
2022-09-23T13:42:17.974Z,98560.08
2022-09-23T13:44:46.975Z,98563.82
2022-09-23T13:47:16.076Z,98565.02
2022-09-23T13:49:47.367Z,98560.79
2022-09-23T13:52:26.742Z,98563.23
2022-09-23T13:54:55.593Z,98565.28
2022-09-23T13:57:29.523Z,98571.02
2022-09-23T14:00:14.546Z,98578.29
2022-09-23T14:02:44.063Z,98590.07
2022-09-23T14:05:21.202Z,98595.77
2022-09-23T14:07:50.937Z,98602.73
2022-09-23T14:10:23.511Z,98604.04
2022-09-23T14:12:54.939Z,98604.19
2022-09-23T14:15:27.167Z,98607.75
2022-09-23T14:18:06.060Z,98609.10
2022-09-23T14:20:46.376Z,98599.55
2022-09-23T14:23:15.148Z,98595.08
2022-09-23T14:25:46.177Z,98585.29
2022-09-23T14:28:18.082Z,98577.86
2022-09-23T14:30:51.542Z,98574.47
2022-09-23T14:33:25.997Z,98578.66
2022-09-23T14:36:01.335Z,98571.02
2022-09-23T14:38:49.959Z,98562.20
2022-09-23T14:41:23.328Z,98551.52
2022-09-23T14:43:58.288Z,98547.70
2022-09-23T14:46:29.492Z,98548.41
2022-09-23T14:49:02.803Z,98553.47
2022-09-23T14:51:40.385Z,98558.10
2022-09-23T14:54:33.421Z,98563.05
2022-09-23T14:57:05.278Z,98565.50
2022-09-23T14:59:37.689Z,98564.74
2022-09-23T15:02:31.165Z,98566.00
2022-09-23T15:05:15.333Z,98565.77
2022-09-23T15:07:47.761Z,98565.42
2022-09-23T15:10:22.784Z,98569.11
2022-09-23T15:12:54.598Z,98566.71
2022-09-23T15:15:27.800Z,98562.30
2022-09-23T15:18:03.248Z,98561.35
2022-09-23T15:20:32.282Z,98563.22
2022-09-23T15:23:02.141Z,98558.09
2022-09-23T15:25:34.868Z,98556.55
2022-09-23T15:28:17.653Z,98558.95
2022-09-23T15:30:46.587Z,98554.48
2022-09-23T15:33:16.830Z,98547.98
2022-09-23T15:35:48.070Z,98548.42
2022-09-23T15:38:17.334Z,98544.23
2022-09-23T15:40:46.742Z,98540.23
2022-09-23T15:43:22.088Z,98540.48
2022-09-23T15:45:52.958Z,98532.70
2022-09-23T15:48:25.347Z,98535.91
2022-09-23T15:50:54.628Z,98533.61
2022-09-23T15:53:25.655Z,98524.32
2022-09-23T15:55:54.445Z,98519.88
2022-09-23T15:58:24.584Z,98517.20
2022-09-23T16:00:56.939Z,98510.33
2022-09-23T16:03:28.963Z,98519.45
2022-09-23T16:06:02.579Z,98515.02
2022-09-23T16:08:32.228Z,98518.88
2022-09-23T16:11:00.973Z,98517.70
2022-09-23T16:13:29.759Z,98518.84
2022-09-23T16:15:58.417Z,98516.50
2022-09-23T16:18:27.256Z,98515.52
2022-09-23T16:20:57.108Z,98517.73
2022-09-23T16:23:34.932Z,98513.95
2022-09-23T16:26:07.006Z,98519.70
2022-09-23T16:28:35.702Z,98519.48
2022-09-23T16:31:04.815Z,98517.81
2022-09-23T16:33:33.632Z,98526.89
2022-09-23T16:36:02.906Z,98529.06
2022-09-23T16:38:32.307Z,98528.42
2022-09-23T16:41:02.282Z,98530.02
2022-09-23T16:43:32.059Z,98529.91
2022-09-23T16:46:00.795Z,98531.07
2022-09-23T16:48:29.464Z,98533.23
2022-09-23T16:51:02.179Z,98533.20
2022-09-23T16:53:31.408Z,98528.53
2022-09-23T16:56:07.265Z,98530.73
2022-09-23T16:58:36.179Z,98531.23
2022-09-23T17:01:20.939Z,98529.92
2022-09-23T17:03:49.817Z,98527.80
2022-09-23T17:06:18.936Z,98531.16
2022-09-23T17:08:48.512Z,98531.12
2022-09-23T17:11:17.779Z,98528.45
2022-09-23T17:13:46.958Z,98529.98
2022-09-23T17:16:24.782Z,98525.56
2022-09-23T17:18:55.219Z,98523.23
2022-09-23T17:21:33.182Z,98524.02
2022-09-23T17:24:02.595Z,98529.08
2022-09-23T17:26:31.602Z,98524.94
2022-09-23T17:29:01.567Z,98522.11
2022-09-23T17:31:30.485Z,98525.30
2022-09-23T17:34:00.303Z,98522.05
2022-09-23T17:36:29.041Z,98525.09
2022-09-23T17:38:57.717Z,98527.75
2022-09-23T17:41:26.914Z,98525.91
2022-09-23T17:43:56.492Z,98526.52
2022-09-23T17:46:25.333Z,98527.30
2022-09-23T17:48:54.858Z,98528.70
2022-09-23T17:51:24.801Z,98527.73
2022-09-23T17:53:53.421Z,98533.94
2022-09-23T17:56:24.978Z,98529.27
2022-09-23T17:58:54.577Z,98528.35
2022-09-23T18:01:27.352Z,98531.48
2022-09-23T18:03:59.082Z,98527.72
2022-09-23T18:06:31.009Z,98528.21
2022-09-23T18:09:03.147Z,98527.09
2022-09-23T18:11:34.131Z,98530.20
2022-09-23T18:14:04.863Z,98533.86
2022-09-23T18:16:36.643Z,98540.43
2022-09-23T18:19:06.436Z,98540.40
2022-09-23T18:21:39.454Z,98536.09
2022-09-23T18:24:31.404Z,98540.21
2022-09-23T18:26:59.247Z,98541.02
2022-09-23T18:29:28.828Z,98538.14
2022-09-23T18:32:01.113Z,98538.45
2022-09-23T18:34:33.092Z,98539.34
2022-09-23T18:37:02.137Z,98535.09
2022-09-23T18:39:30.956Z,98533.73
2022-09-23T18:42:00.348Z,98531.79
2022-09-23T18:44:30.943Z,98529.91
2022-09-23T18:46:59.852Z,98527.20
2022-09-23T18:49:47.144Z,98529.12
2022-09-23T18:52:16.411Z,98534.34
2022-09-23T18:54:48.455Z,98532.52
2022-09-23T18:57:19.604Z,98537.50
2022-09-23T18:59:49.072Z,98538.05
2022-09-23T19:02:20.075Z,98532.66
2022-09-23T19:04:48.924Z,98532.58
2022-09-23T19:07:17.556Z,98533.17
2022-09-23T19:09:46.300Z,98526.88
2022-09-23T19:12:15.516Z,98527.80
2022-09-23T19:14:44.307Z,98525.94
2022-09-23T19:17:16.144Z,98525.71
2022-09-23T19:19:49.488Z,98523.96
2022-09-23T19:22:18.947Z,98522.64
2022-09-23T19:24:49.117Z,98518.58
2022-09-23T19:27:17.831Z,98527.95
2022-09-23T19:29:46.894Z,98528.42
2022-09-23T19:32:15.912Z,98524.80
2022-09-23T19:34:45.682Z,98522.13
2022-09-23T19:37:16.302Z,98521.86
2022-09-23T19:39:46.937Z,98522.67
2022-09-23T19:42:16.557Z,98522.61
2022-09-23T19:44:45.321Z,98527.30
2022-09-23T19:47:17.057Z,98526.94
2022-09-23T19:49:48.158Z,98527.09
2022-09-23T19:52:16.958Z,98524.77
2022-09-23T19:54:48.474Z,98521.86
2022-09-23T19:57:18.856Z,98519.60
2022-09-23T19:59:47.537Z,98513.71
2022-09-23T20:02:16.680Z,98518.61
2022-09-23T20:04:50.781Z,98516.63
2022-09-23T20:07:19.838Z,98513.98
2022-09-23T20:09:49.958Z,98516.00
2022-09-23T20:12:18.806Z,98519.35
2022-09-23T20:14:47.427Z,98517.06
2022-09-23T20:17:16.967Z,98513.52
2022-09-23T20:19:46.848Z,98514.52
2022-09-23T20:22:24.523Z,98514.44
2022-09-23T20:24:53.431Z,98510.20
2022-09-23T20:27:22.672Z,98505.77
2022-09-23T20:29:51.910Z,98502.69
2022-09-23T20:32:20.685Z,98501.67
2022-09-23T20:34:49.373Z,98501.44
2022-09-23T20:37:19.823Z,98497.04
2022-09-23T20:39:48.006Z,98498.02
2022-09-23T20:42:18.025Z,98501.31
2022-09-23T20:44:47.469Z,98499.80
2022-09-23T20:47:17.724Z,98494.12
2022-09-23T20:49:48.580Z,98493.77
2022-09-23T20:52:20.035Z,98493.05
2022-09-23T20:54:50.977Z,98492.84
2022-09-23T20:57:20.225Z,98496.40
2022-09-23T20:59:48.969Z,98494.98
2022-09-23T21:02:18.023Z,98494.64
2022-09-23T21:04:47.120Z,98499.35
2022-09-23T21:07:16.883Z,98496.81
2022-09-23T21:09:45.559Z,98501.98
2022-09-23T21:12:14.675Z,98502.77
2022-09-23T21:14:43.397Z,98504.08
2022-09-23T21:17:12.067Z,98500.56
2022-09-23T21:19:40.983Z,98502.47
2022-09-23T21:22:09.920Z,98500.55
2022-09-23T21:25:16.028Z,98498.93
2022-09-23T21:27:27.302Z,98496.14
2022-09-23T21:29:56.045Z,98494.77
2022-09-23T21:32:24.734Z,98494.08
2022-09-23T21:34:55.161Z,98489.30
2022-09-23T21:37:24.849Z,98495.70
2022-09-23T21:40:08.089Z,98495.66
2022-09-23T21:42:36.979Z,98497.98
2022-09-23T21:45:08.494Z,98501.32
2022-09-23T21:47:37.196Z,98501.14
2022-09-23T21:50:08.526Z,98499.71
2022-09-23T21:52:38.510Z,98496.08
2022-09-23T21:55:08.175Z,98495.13
2022-09-23T21:57:37.653Z,98493.44
2022-09-23T22:00:09.332Z,98492.27
2022-09-23T22:02:39.327Z,98485.64
2022-09-23T22:05:09.019Z,98485.46
2022-09-23T22:07:37.904Z,98482.37
2022-09-23T22:10:08.348Z,98484.77
2022-09-23T22:12:36.771Z,98490.05
2022-09-23T22:15:07.759Z,98492.73
2022-09-23T22:17:36.923Z,98487.75
2022-09-23T22:20:07.561Z,98486.08
2022-09-23T22:22:36.315Z,98484.46
2022-09-23T22:25:06.363Z,98483.05
2022-09-23T22:27:55.830Z,98478.08
2022-09-23T22:30:43.068Z,98477.58
2022-09-23T22:33:15.679Z,98477.51
2022-09-23T22:35:44.481Z,98473.29
2022-09-23T22:38:13.278Z,98473.16
2022-09-23T22:40:43.960Z,98469.98
2022-09-23T22:43:13.476Z,98470.38
2022-09-23T22:45:50.432Z,98471.23
2022-09-23T22:48:20.423Z,98472.56
2022-09-23T22:50:49.187Z,98472.95
2022-09-23T22:53:20.681Z,98474.59
2022-09-23T22:56:00.478Z,98474.54
2022-09-23T22:58:32.483Z,98470.88
2022-09-23T23:01:01.893Z,98470.20
2022-09-23T23:03:33.831Z,98472.80
2022-09-23T23:06:03.917Z,98468.02
2022-09-23T23:08:36.538Z,98464.77
2022-09-23T23:11:09.431Z,98463.69
2022-09-23T23:13:41.292Z,98460.48
2022-09-23T23:16:12.366Z,98458.30
2022-09-23T23:18:42.709Z,98456.14
2022-09-23T23:21:13.801Z,98452.97
2022-09-23T23:23:44.683Z,98454.29
2022-09-23T23:26:15.761Z,98449.58
2022-09-23T23:28:46.048Z,98451.77
2022-09-23T23:31:17.044Z,98447.23
2022-09-23T23:33:46.402Z,98442.38
2022-09-23T23:36:19.621Z,98444.34
2022-09-23T23:38:51.149Z,98437.13
2022-09-23T23:41:21.922Z,98436.93
2022-09-23T23:43:56.010Z,98436.45
2022-09-23T23:46:31.088Z,98432.30
2022-09-23T23:49:01.040Z,98433.20
2022-09-23T23:51:30.348Z,98431.75
2022-09-23T23:54:00.095Z,98426.57
2022-09-23T23:56:30.889Z,98426.81
2022-09-23T23:59:02.259Z,98427.17
